CheckWX is a tool to help pilots better visualize weather data.  It is not intended as a substitute for an official pre-flight weather briefing.

12:04:24 UTC

CYAB METAR
Arctic Bay
Arctic Bay, Canada
Current

1 hour ago

CYAB 251100Z 08002KT 30SM SKC M26/M30 A2988 RMK SNW CVR/MEDIUM PACK FROIN SLP125
Observed
Mar-25 @ 11:00 UTC
Wind
  • 080° at 2 KTS
Visibility
30 SM
Flight Rules
VFR
Cloud Levels
  • Clear skies
Temperature
-26°C / -15°F
Dewpoint
-30°C / -22°F
Humidity
69%
Altimeter
29.88" Hg
Pressure
1012.5 hPa